createdAt,value
2023-11-22T00:01:52.415Z,88.32
2023-11-22T00:04:21.616Z,88.33
2023-11-22T00:06:50.023Z,88.36
2023-11-22T00:09:23.358Z,88.39
2023-11-22T00:11:51.760Z,88.42
2023-11-22T00:14:20.296Z,88.44
2023-11-22T00:16:49.473Z,88.33
2023-11-22T00:19:19.669Z,88.32
2023-11-22T00:21:48.145Z,88.39
2023-11-22T00:24:16.481Z,88.45
2023-11-22T00:26:45.117Z,88.53
2023-11-22T00:29:13.497Z,88.57
2023-11-22T00:31:41.964Z,88.49
2023-11-22T00:34:10.348Z,88.37
2023-11-22T00:36:38.677Z,88.24
2023-11-22T00:39:07.096Z,87.82
2023-11-22T00:41:37.011Z,87.51
2023-11-22T00:44:07.306Z,87.59
2023-11-22T00:46:36.164Z,87.80
2023-11-22T00:49:09.731Z,87.94
2023-11-22T00:51:39.038Z,88.01
2023-11-22T00:54:08.234Z,88.03
2023-11-22T00:56:37.500Z,88.12
2023-11-22T00:59:06.044Z,88.22
2023-11-22T01:01:34.453Z,88.30
2023-11-22T01:04:02.940Z,88.36
2023-11-22T01:06:33.586Z,88.22
2023-11-22T01:09:01.870Z,88.14
2023-11-22T01:11:30.285Z,88.18
2023-11-22T01:13:58.727Z,88.19
2023-11-22T01:16:27.226Z,88.24
2023-11-22T01:18:55.930Z,88.29
2023-11-22T01:21:24.696Z,88.27
2023-11-22T01:23:53.074Z,88.15
2023-11-22T01:26:21.510Z,87.94
2023-11-22T01:28:49.938Z,87.61
2023-11-22T01:31:22.380Z,87.31
2023-11-22T01:33:51.317Z,87.24
2023-11-22T01:36:20.201Z,87.23
2023-11-22T01:38:48.677Z,87.38
2023-11-22T01:41:17.283Z,87.48
2023-11-22T01:43:45.737Z,87.57
2023-11-22T01:46:27.070Z,87.45
2023-11-22T01:48:56.322Z,87.52
2023-11-22T01:51:25.943Z,87.50
2023-11-22T01:53:57.071Z,87.48
2023-11-22T01:56:28.299Z,87.48
2023-11-22T01:58:59.135Z,87.53
2023-11-22T02:01:30.135Z,87.64
2023-11-22T02:03:59.398Z,87.66
2023-11-22T02:06:50.650Z,87.68
2023-11-22T02:10:20.882Z,87.72
2023-11-22T02:13:06.108Z,87.82
2023-11-22T02:15:38.752Z,87.79
2023-11-22T02:18:13.004Z,87.80
2023-11-22T02:21:04.660Z,87.75
2023-11-22T02:23:38.643Z,87.66
2023-11-22T02:26:07.015Z,87.67
2023-11-22T02:28:35.498Z,87.68
2023-11-22T02:31:07.628Z,87.70
2023-11-22T02:33:47.827Z,87.64
2023-11-22T02:36:16.165Z,87.27
2023-11-22T02:38:47.295Z,86.80
2023-11-22T02:41:15.865Z,86.86
2023-11-22T02:43:44.505Z,86.83
2023-11-22T02:46:13.012Z,86.85
2023-11-22T02:48:41.478Z,86.82
2023-11-22T02:51:11.709Z,86.70
2023-11-22T02:53:41.274Z,86.61
2023-11-22T02:56:10.014Z,86.43
2023-11-22T02:58:38.572Z,86.44
2023-11-22T03:01:08.844Z,86.47
2023-11-22T03:03:55.593Z,86.63
2023-11-22T03:06:46.820Z,86.54
2023-11-22T03:09:18.689Z,86.24
2023-11-22T03:11:47.473Z,86.23
2023-11-22T03:14:16.942Z,86.13
2023-11-22T03:16:45.377Z,85.96
2023-11-22T03:19:14.781Z,85.91
2023-11-22T03:21:45.381Z,86.02
2023-11-22T03:24:14.286Z,86.11
2023-11-22T03:26:43.479Z,86.20
2023-11-22T03:29:11.978Z,86.12
2023-11-22T03:31:41.069Z,85.92
2023-11-22T03:34:09.534Z,85.93
2023-11-22T03:36:37.918Z,86.00
2023-11-22T03:39:06.496Z,86.12
2023-11-22T03:41:35.636Z,86.27
2023-11-22T03:44:10.280Z,86.50
2023-11-22T03:46:39.754Z,86.65
2023-11-22T03:49:09.649Z,86.81
2023-11-22T03:51:39.175Z,86.78
2023-11-22T03:54:08.352Z,86.69
2023-11-22T03:56:36.981Z,86.77
2023-11-22T03:59:05.326Z,86.70
2023-11-22T04:01:33.852Z,86.64
2023-11-22T04:04:02.435Z,86.64
2023-11-22T04:06:30.848Z,86.67
2023-11-22T04:09:00.255Z,86.71
2023-11-22T04:11:30.623Z,86.57
2023-11-22T04:13:58.976Z,86.30
2023-11-22T04:16:27.761Z,86.00
2023-11-22T04:18:56.631Z,85.72
2023-11-22T04:21:25.628Z,85.79
2023-11-22T04:23:53.917Z,85.73
2023-11-22T04:26:23.314Z,85.75
2023-11-22T04:28:51.890Z,85.71
2023-11-22T04:31:20.489Z,85.80
2023-11-22T04:33:49.487Z,85.97
2023-11-22T04:36:18.369Z,86.13
2023-11-22T04:38:46.724Z,86.26
2023-11-22T04:41:15.866Z,86.38
2023-11-22T04:43:46.114Z,86.54
2023-11-22T04:46:14.635Z,86.58
2023-11-22T04:48:46.700Z,86.54
2023-11-22T04:51:18.054Z,86.16
2023-11-22T04:53:47.255Z,86.09
2023-11-22T04:56:15.877Z,86.21
2023-11-22T04:58:44.209Z,86.33
2023-11-22T05:01:12.701Z,86.43
2023-11-22T05:03:41.149Z,86.41
2023-11-22T05:06:09.985Z,86.31
2023-11-22T05:08:38.864Z,86.17
2023-11-22T05:11:07.472Z,86.20
2023-11-22T05:13:36.315Z,86.13
2023-11-22T05:16:05.088Z,85.70
2023-11-22T05:18:33.506Z,85.47
2023-11-22T05:21:02.089Z,85.47
2023-11-22T05:23:30.619Z,85.59
2023-11-22T05:26:00.955Z,85.69
2023-11-22T05:28:29.489Z,85.65
2023-11-22T05:30:58.068Z,85.40
2023-11-22T05:33:26.614Z,85.45
2023-11-22T05:35:55.538Z,85.50
2023-11-22T05:38:23.997Z,85.51
2023-11-22T05:40:52.488Z,85.21
2023-11-22T05:43:26.966Z,85.17
2023-11-22T05:45:55.594Z,85.21
2023-11-22T05:48:23.994Z,84.87
2023-11-22T05:50:52.446Z,84.69
2023-11-22T05:53:22.499Z,84.72
2023-11-22T05:55:51.249Z,84.78
2023-11-22T05:58:22.805Z,84.85
2023-11-22T06:00:51.084Z,84.88
2023-11-22T06:03:21.175Z,84.87
2023-11-22T06:05:50.110Z,85.02
2023-11-22T06:08:19.033Z,85.16
2023-11-22T06:10:47.989Z,85.22
2023-11-22T06:13:16.650Z,85.18
2023-11-22T06:15:45.571Z,85.17
2023-11-22T06:18:15.409Z,85.21
2023-11-22T06:20:44.213Z,85.27
2023-11-22T06:23:12.765Z,85.23
2023-11-22T06:25:44.924Z,85.23
2023-11-22T06:28:13.805Z,85.21
2023-11-22T06:30:43.458Z,85.23
2023-11-22T06:33:11.823Z,85.21
2023-11-22T06:35:40.298Z,85.19
2023-11-22T06:38:09.598Z,85.13
2023-11-22T06:40:38.262Z,85.04
2023-11-22T06:43:07.040Z,85.03
2023-11-22T06:45:36.147Z,85.09
2023-11-22T06:48:05.129Z,85.11
2023-11-22T06:50:33.955Z,85.11
2023-11-22T06:53:04.896Z,85.12
2023-11-22T06:55:34.422Z,85.21
2023-11-22T06:58:02.698Z,85.43
2023-11-22T07:00:32.154Z,85.61
2023-11-22T07:03:00.976Z,85.76
2023-11-22T07:05:31.726Z,85.84
2023-11-22T07:08:00.869Z,85.90
2023-11-22T07:10:29.347Z,85.89
2023-11-22T07:12:57.820Z,85.77
2023-11-22T07:15:28.208Z,85.72
2023-11-22T07:17:57.102Z,85.66
2023-11-22T07:20:25.538Z,85.62
2023-11-22T07:22:58.945Z,85.64
2023-11-22T07:25:27.913Z,85.61
2023-11-22T07:27:56.397Z,85.59
2023-11-22T07:30:24.784Z,85.57
2023-11-22T07:32:56.156Z,85.57
2023-11-22T07:35:24.958Z,85.51
2023-11-22T07:37:53.409Z,85.49
2023-11-22T07:40:23.496Z,85.50
2023-11-22T07:42:52.188Z,85.48
2023-11-22T07:45:20.585Z,85.49
2023-11-22T07:47:49.067Z,85.51
2023-11-22T07:50:18.293Z,85.55
2023-11-22T07:52:47.454Z,85.58
2023-11-22T07:55:15.842Z,85.46
2023-11-22T07:57:45.601Z,85.33
2023-11-22T08:00:14.885Z,85.14
2023-11-22T08:02:44.838Z,85.09
2023-11-22T08:05:16.034Z,84.94
2023-11-22T08:07:48.902Z,84.92
2023-11-22T08:10:20.333Z,84.97
2023-11-22T08:12:51.673Z,84.92
2023-11-22T08:15:21.801Z,84.73
2023-11-22T08:17:50.400Z,84.16
2023-11-22T08:20:20.093Z,83.80
2023-11-22T08:22:52.492Z,83.60
2023-11-22T08:25:21.688Z,83.36
2023-11-22T08:27:51.185Z,83.44
2023-11-22T08:30:19.761Z,83.52
2023-11-22T08:32:55.166Z,83.57
2023-11-22T08:35:25.376Z,82.90
2023-11-22T08:37:54.217Z,82.70
2023-11-22T08:40:23.367Z,82.79
2023-11-22T08:42:52.128Z,83.02
2023-11-22T08:45:21.198Z,83.00
2023-11-22T08:47:51.495Z,82.93
2023-11-22T08:50:21.492Z,82.83
2023-11-22T08:52:54.241Z,82.97
2023-11-22T08:55:23.516Z,83.01
2023-11-22T08:57:54.981Z,83.25
2023-11-22T09:00:24.077Z,83.31
2023-11-22T09:02:53.120Z,83.11
2023-11-22T09:05:23.096Z,82.91
2023-11-22T09:07:52.529Z,82.95
2023-11-22T09:10:23.386Z,83.09
2023-11-22T09:12:52.953Z,83.21
2023-11-22T09:15:27.845Z,83.26
2023-11-22T09:17:56.843Z,83.33
2023-11-22T09:20:25.679Z,83.28
2023-11-22T09:22:55.880Z,83.02
2023-11-22T09:25:32.343Z,82.79
2023-11-22T09:28:00.922Z,82.63
2023-11-22T09:30:34.643Z,82.54
2023-11-22T09:33:11.411Z,82.27
2023-11-22T09:35:40.977Z,82.11
2023-11-22T09:38:13.862Z,82.08
2023-11-22T09:40:46.854Z,82.13
2023-11-22T09:43:19.691Z,82.18
2023-11-22T09:45:54.182Z,82.20
2023-11-22T09:48:29.701Z,82.04
2023-11-22T09:51:04.396Z,81.98
2023-11-22T09:53:41.891Z,81.88
2023-11-22T09:56:11.604Z,81.68
2023-11-22T09:58:45.396Z,81.73
2023-11-22T10:01:15.171Z,81.62
2023-11-22T10:03:43.609Z,81.48
2023-11-22T10:06:12.329Z,81.42
2023-11-22T10:08:40.733Z,81.18
2023-11-22T10:11:09.904Z,81.21
2023-11-22T10:13:38.391Z,81.43
2023-11-22T10:16:19.776Z,81.58
2023-11-22T10:18:49.985Z,81.63
2023-11-22T10:21:27.274Z,81.48
2023-11-22T10:24:03.671Z,81.13
2023-11-22T10:26:33.382Z,80.98
2023-11-22T10:29:03.740Z,80.97
2023-11-22T10:31:35.946Z,81.19
2023-11-22T10:34:05.157Z,81.35
2023-11-22T10:36:33.946Z,81.29
2023-11-22T10:39:04.323Z,81.36
2023-11-22T10:41:34.506Z,81.28
2023-11-22T10:44:04.922Z,81.38
2023-11-22T10:46:33.676Z,81.07
2023-11-22T10:49:02.259Z,81.10
2023-11-22T10:51:34.778Z,80.97
2023-11-22T10:54:05.471Z,80.89
2023-11-22T10:56:41.030Z,80.80
2023-11-22T10:59:16.085Z,80.51
2023-11-22T11:01:54.263Z,80.54
2023-11-22T11:04:37.414Z,80.79
2023-11-22T11:07:08.260Z,80.75
2023-11-22T11:09:38.375Z,80.67
2023-11-22T11:12:09.121Z,80.56
2023-11-22T11:14:38.888Z,80.39
2023-11-22T11:17:08.754Z,80.28
2023-11-22T11:19:37.404Z,80.39
2023-11-22T11:22:10.678Z,80.51
2023-11-22T11:24:45.759Z,80.43
2023-11-22T11:27:14.635Z,80.37
2023-11-22T11:29:45.198Z,80.27
2023-11-22T11:32:36.733Z,80.37
2023-11-22T11:35:09.453Z,80.38
2023-11-22T11:37:38.989Z,80.38
2023-11-22T11:40:36.330Z,80.39
2023-11-22T11:43:06.246Z,80.23
2023-11-22T11:45:47.363Z,80.17
2023-11-22T11:48:19.570Z,79.85
2023-11-22T11:50:49.201Z,79.71
2023-11-22T11:53:21.860Z,79.85
2023-11-22T11:55:52.668Z,79.90
2023-11-22T11:58:24.675Z,80.07
2023-11-22T12:01:00.157Z,80.22
2023-11-22T12:03:28.796Z,80.16
2023-11-22T12:05:57.624Z,80.30
2023-11-22T12:08:26.095Z,80.40
2023-11-22T12:10:57.737Z,80.49
2023-11-22T12:13:27.444Z,80.48
2023-11-22T12:15:56.416Z,80.34
2023-11-22T12:18:25.557Z,80.12
2023-11-22T12:20:58.889Z,80.32
2023-11-22T12:23:28.942Z,80.26
2023-11-22T12:26:03.490Z,80.19
2023-11-22T12:28:34.323Z,80.30
2023-11-22T12:31:13.841Z,80.17
2023-11-22T12:33:44.062Z,80.23
2023-11-22T12:36:17.865Z,80.28
2023-11-22T12:38:46.467Z,80.25
2023-11-22T12:41:16.104Z,80.39
2023-11-22T12:43:49.007Z,80.46
2023-11-22T12:46:19.824Z,80.44
2023-11-22T12:48:48.477Z,80.54
2023-11-22T12:51:18.694Z,80.60
2023-11-22T12:53:51.582Z,80.57
2023-11-22T12:56:20.183Z,80.46
2023-11-22T12:58:49.365Z,80.35
2023-11-22T13:01:18.255Z,80.24
2023-11-22T13:03:46.862Z,80.38
2023-11-22T13:06:15.795Z,80.50
2023-11-22T13:08:44.426Z,80.54
2023-11-22T13:11:12.900Z,80.23
2023-11-22T13:13:41.580Z,80.12
2023-11-22T13:16:11.068Z,80.15
2023-11-22T13:18:39.456Z,80.12
2023-11-22T13:21:08.150Z,80.21
2023-11-22T13:23:36.870Z,80.31
2023-11-22T13:26:07.135Z,80.44
2023-11-22T13:28:35.846Z,80.45
2023-11-22T13:31:04.262Z,80.45
2023-11-22T13:33:32.821Z,80.54
2023-11-22T13:36:01.826Z,80.56
2023-11-22T13:38:30.702Z,80.49
2023-11-22T13:41:00.082Z,80.53
2023-11-22T13:43:28.581Z,80.58
2023-11-22T13:45:56.994Z,80.50
2023-11-22T13:48:26.523Z,80.42
2023-11-22T13:50:55.376Z,80.29
2023-11-22T13:53:24.083Z,80.59
2023-11-22T13:55:55.272Z,80.40
2023-11-22T13:58:24.186Z,80.56
2023-11-22T14:00:55.752Z,80.70
2023-11-22T14:03:24.735Z,80.69
2023-11-22T14:05:56.911Z,80.61
2023-11-22T14:08:27.090Z,80.54
2023-11-22T14:10:55.915Z,80.52
2023-11-22T14:13:24.596Z,80.52
2023-11-22T14:15:55.849Z,80.40
2023-11-22T14:18:24.584Z,80.58
2023-11-22T14:20:55.727Z,80.55
2023-11-22T14:23:24.491Z,80.43
2023-11-22T14:25:53.850Z,80.42
2023-11-22T14:28:24.453Z,80.46
2023-11-22T14:30:56.273Z,80.53
2023-11-22T14:33:25.316Z,80.71
2023-11-22T14:35:56.093Z,80.74
2023-11-22T14:38:28.573Z,80.83
2023-11-22T14:40:58.688Z,80.97
2023-11-22T14:43:27.870Z,80.92
2023-11-22T14:45:58.233Z,80.97
2023-11-22T14:48:28.604Z,81.05
2023-11-22T14:50:59.336Z,81.12
2023-11-22T14:53:29.868Z,81.20
2023-11-22T14:55:59.810Z,81.31
2023-11-22T14:58:31.049Z,81.38
2023-11-22T15:00:59.720Z,81.41
2023-11-22T15:03:30.485Z,81.42
2023-11-22T15:05:59.821Z,81.44
2023-11-22T15:08:29.788Z,81.46
2023-11-22T15:10:58.770Z,81.56
2023-11-22T15:13:29.115Z,81.70
2023-11-22T15:15:58.614Z,81.85
2023-11-22T15:18:29.041Z,81.99
2023-11-22T15:20:59.110Z,82.09
2023-11-22T15:23:27.597Z,82.18
2023-11-22T15:25:56.104Z,82.31
2023-11-22T15:28:24.795Z,82.50
2023-11-22T15:31:01.712Z,82.55
2023-11-22T15:33:30.973Z,82.53
2023-11-22T15:35:59.599Z,82.51
2023-11-22T15:38:28.264Z,82.51
2023-11-22T15:41:04.971Z,82.50
2023-11-22T15:43:41.386Z,82.49
2023-11-22T15:46:14.398Z,82.48
2023-11-22T15:48:45.918Z,82.45
2023-11-22T15:51:17.953Z,82.42
2023-11-22T15:53:47.770Z,82.40
2023-11-22T15:56:17.575Z,82.38
2023-11-22T15:58:47.569Z,82.39
2023-11-22T16:01:16.191Z,82.38
2023-11-22T16:03:45.926Z,82.36
2023-11-22T16:06:14.950Z,82.31
2023-11-22T16:08:44.277Z,82.39
2023-11-22T16:11:14.316Z,82.37
2023-11-22T16:13:46.209Z,82.29
2023-11-22T16:16:15.396Z,82.25
2023-11-22T16:18:44.960Z,82.43
2023-11-22T16:21:14.617Z,82.32
2023-11-22T16:23:44.386Z,82.23
2023-11-22T16:26:13.014Z,82.30
2023-11-22T16:28:43.195Z,82.29
2023-11-22T16:31:12.931Z,82.18
2023-11-22T16:33:42.393Z,82.09
2023-11-22T16:36:12.873Z,82.01
2023-11-22T16:38:42.150Z,82.01
2023-11-22T16:41:13.072Z,81.88
2023-11-22T16:43:42.832Z,81.84
2023-11-22T16:46:13.290Z,81.99
2023-11-22T16:48:45.724Z,82.09
2023-11-22T16:51:17.140Z,81.97
2023-11-22T16:53:45.840Z,82.04
2023-11-22T17:12:01.747Z,82.26
2023-11-22T17:16:02.772Z,82.29
2023-11-22T17:20:29.536Z,82.48
2023-11-22T17:28:37.925Z,82.70
2023-11-22T17:36:07.895Z,82.68
2023-11-22T17:39:29.765Z,82.68
2023-11-22T17:46:45.807Z,82.83
2023-11-22T17:49:15.602Z,82.69
2023-11-22T17:51:45.660Z,82.59
2023-11-22T17:54:14.844Z,82.40
2023-11-22T17:56:43.643Z,82.34
2023-11-22T17:59:12.549Z,82.38
2023-11-22T18:01:41.468Z,82.41
2023-11-22T18:04:12.953Z,82.40
2023-11-22T18:06:57.900Z,82.38
2023-11-22T18:20:11.858Z,82.62
2023-11-22T18:22:58.129Z,82.59
2023-11-22T18:25:42.047Z,82.67
2023-11-22T18:28:24.891Z,82.80
2023-11-22T18:35:10.219Z,82.91
2023-11-22T18:37:59.714Z,82.95
2023-11-22T18:46:09.198Z,83.02
2023-11-22T18:48:53.802Z,83.03
2023-11-22T18:51:39.321Z,83.09
2023-11-22T18:54:30.629Z,83.17
2023-11-22T18:58:28.710Z,83.25
2023-11-22T19:01:17.735Z,83.22
2023-11-22T19:07:30.428Z,83.38
2023-11-22T19:10:01.406Z,83.46
2023-11-22T19:12:33.484Z,83.47
2023-11-22T19:15:04.239Z,83.44
2023-11-22T19:17:35.785Z,83.48
2023-11-22T19:20:08.553Z,83.51
2023-11-22T19:22:43.194Z,83.52
2023-11-22T19:25:17.905Z,83.52
2023-11-22T19:27:50.376Z,83.54
2023-11-22T19:30:21.398Z,83.63
2023-11-22T19:32:51.674Z,83.61
2023-11-22T19:35:23.439Z,83.61
2023-11-22T19:37:55.692Z,83.62
2023-11-22T19:40:27.369Z,83.63
2023-11-22T19:42:58.617Z,83.62
2023-11-22T19:45:31.720Z,83.64
2023-11-22T19:48:03.024Z,83.68
2023-11-22T19:50:34.660Z,83.67
2023-11-22T19:53:05.393Z,83.65
2023-11-22T19:55:35.874Z,83.61
2023-11-22T19:58:06.049Z,83.59
2023-11-22T20:00:35.895Z,83.59
2023-11-22T20:03:05.284Z,83.61
2023-11-22T20:05:35.237Z,83.60
2023-11-22T20:08:04.401Z,83.63
2023-11-22T20:10:34.428Z,83.61
2023-11-22T20:13:03.266Z,83.59
2023-11-22T20:15:33.034Z,83.61
2023-11-22T20:18:02.293Z,83.62
2023-11-22T20:20:31.843Z,83.64
2023-11-22T20:23:01.843Z,83.66
2023-11-22T20:25:31.037Z,83.69
2023-11-22T20:27:59.845Z,83.72
2023-11-22T20:30:28.831Z,83.75
2023-11-22T20:32:57.520Z,83.78
2023-11-22T20:35:27.528Z,83.80
2023-11-22T20:37:57.652Z,83.80
2023-11-22T20:40:26.651Z,83.82
2023-11-22T20:42:55.584Z,83.86
2023-11-22T20:45:24.731Z,83.88
2023-11-22T20:47:53.724Z,83.90
2023-11-22T20:50:25.380Z,83.90
2023-11-22T20:52:55.526Z,83.93
2023-11-22T20:55:24.388Z,83.96
2023-11-22T20:57:53.296Z,83.97
2023-11-22T21:00:25.746Z,83.97
2023-11-22T21:02:55.847Z,83.97
2023-11-22T21:05:25.884Z,83.97
2023-11-22T21:07:54.783Z,83.99
2023-11-22T21:10:24.100Z,84.02
2023-11-22T21:12:55.827Z,84.06
2023-11-22T21:15:25.849Z,84.06
2023-11-22T21:17:56.407Z,84.07
2023-11-22T21:20:27.441Z,84.10
2023-11-22T21:22:56.825Z,84.11
2023-11-22T21:25:25.432Z,84.11
2023-11-22T21:27:54.302Z,84.09
2023-11-22T21:30:23.157Z,84.09
2023-11-22T21:32:53.107Z,84.11
2023-11-22T21:35:22.417Z,84.13
2023-11-22T21:37:51.507Z,84.16
2023-11-22T21:40:20.498Z,84.16
2023-11-22T21:42:49.584Z,84.16
2023-11-22T21:45:18.185Z,84.19
2023-11-22T21:47:46.990Z,84.22
2023-11-22T21:50:15.987Z,84.23
2023-11-22T21:52:45.577Z,84.30
2023-11-22T21:55:14.865Z,84.30
2023-11-22T21:57:45.292Z,84.29
2023-11-22T22:00:16.254Z,84.30
2023-11-22T22:02:45.540Z,84.32
2023-11-22T22:05:14.326Z,84.32
2023-11-22T22:07:42.844Z,84.30
2023-11-22T22:10:11.487Z,84.31
2023-11-22T22:12:40.313Z,84.29
2023-11-22T22:15:10.173Z,84.29
2023-11-22T22:17:39.164Z,84.27
2023-11-22T22:20:08.450Z,84.24
2023-11-22T22:22:37.486Z,84.24
2023-11-22T22:25:06.382Z,84.22
2023-11-22T22:27:34.747Z,84.18
2023-11-22T22:30:03.474Z,84.14
2023-11-22T22:32:32.509Z,84.13
2023-11-22T22:35:01.126Z,84.12
2023-11-22T22:37:29.469Z,84.12
2023-11-22T22:39:57.673Z,84.11
2023-11-22T22:42:26.355Z,84.10
2023-11-22T22:44:54.747Z,84.09
2023-11-22T22:47:23.103Z,84.10
2023-11-22T22:49:51.740Z,84.10
2023-11-22T22:52:20.680Z,84.08
2023-11-22T22:54:49.173Z,84.08
2023-11-22T22:57:17.634Z,84.10
2023-11-22T22:59:46.705Z,84.15
2023-11-22T23:02:15.355Z,84.19
2023-11-22T23:04:46.836Z,84.18
2023-11-22T23:07:15.253Z,84.19
2023-11-22T23:09:45.288Z,84.22
2023-11-22T23:12:13.769Z,84.24
2023-11-22T23:14:42.240Z,84.25
2023-11-22T23:17:10.838Z,84.27
2023-11-22T23:19:39.201Z,84.29
2023-11-22T23:22:07.989Z,84.28
2023-11-22T23:24:38.204Z,84.27
2023-11-22T23:27:07.460Z,84.28
2023-11-22T23:29:40.131Z,84.31
2023-11-22T23:32:11.322Z,84.31
2023-11-22T23:34:40.324Z,84.33
2023-11-22T23:37:09.837Z,84.34
2023-11-22T23:39:38.317Z,84.35
2023-11-22T23:42:14.245Z,84.37
2023-11-22T23:44:42.871Z,84.39
2023-11-22T23:47:12.164Z,84.40
2023-11-22T23:49:40.428Z,84.38
2023-11-22T23:52:08.800Z,84.39
2023-11-22T23:54:37.193Z,84.39
2023-11-22T23:57:06.416Z,84.38
2023-11-22T23:59:37.596Z,84.36
